Tri-State/Milton J. Ferguson Field
KHTS : now visible

Airfield :











YOU CAN JOIN US ON...

 
LOGIN :

Register | Disclaimer

   EN    FR    IT 

 









Legend :    VFR   Marginal VFR   IFR   Intensive IFR   Very Intensive IFR
Visi :
Ceiling :
>= 8 km
>= 3000ft
5 to 8 km
1000 to 3000 ft
1500m to 5 km
500 to 1000 ft
800 to 1500m
200 to 500 ft
< 800m
< 200 ft
Symbols :   Thunderstorms  Fog  Heavy snow  Heavy precipitations  Wind > 20 kt






- Airport Elevation : 828 ft
- IATA code : HTS


KHTS - Tri-State/Milton J. Ferguson Field

CURRENT METAR :
  • 250611Z 08004KT 5SM -RA BR BKN028 OVC035 07/06 A2974 RMK AO2 P0001 T00670061

EXPIRED METARs :
  • 250558Z 07005KT 4SM -RA BR FEW026 OVC033 07/06 A2974 RMK AO2 P0001 T00670061
  • 250551Z 08005KT 2 1/2SM RA BR SCT026 BKN030 OVC035 07/06 A2974 RMK AO2 RAB07 SLP072 P0008 60014 T00670061 10089 20067 56014
  • 250525Z 08004KT 5SM -RA BR BKN027 OVC038 07/06 A2975 RMK AO2 RAB07 P0000 T00670056
  • 250451Z 08003KT 10SM OVC036 07/06 A2976 RMK AO2 RAB28E42 SLP077 P0001 T00670056 401000033
  • 250351Z 00000KT 10SM OVC044 07/06 A2978 RMK AO2 RAE40 SLP086 P0003 T00670056
  • 250335Z 32003KT 7SM -RA FEW014 SCT026 OVC046 07/06 A2979 RMK AO2 P0003 T00670056

TAF KHTS
Valid from the 25 at 06:00 until the 26 at 06:00 UTC


250558Z 2506/2606 08003KT 5SM -SHRA OVC035
FM250900 11003KT 6SM -SHRA BR OVC022
FM251100 18004KT 6SM -SHRA BR OVC020
FM251400 20005KT 6SM BR VCSH OVC021
FM251600 24006KT P6SM BKN035



MET'MAP, your aeronautical weather chart ! - Copyright ORBIFLY December 2007 - Disclaimer

ORBIFLY MET'MAP TEAM :

Programming & Development : Alexandra Zaïnal
Concept & original design : Baudouin d'Aumeries
Assistance for programming : Marc-Olivier Méhu
Technical & hardware support : Manuel Goepfert

Contact : metmap@orbifly.com




SOURCES & CREDITS :

   NOAA       Earth
Advisory